Time;durP1;ratioP1;P1;durP2;ratioP2;P2;SDS_P1;SDS_P2;PMS_P1;PMS_P2;Temp;Humidity;BMP_temperature;BMP_pressure;BME280_temperature;BME280_humidity;BME280_pressure;Samples;Min_cycle;Max_cycle;Signal;HPM_P1;HPM_P2
2021/06/10 00:01:42;;;;;;;10.78;6.08;;;;;;;16.89;54.81;100737.14;128648;1092;22343;-78
2021/06/10 00:04:12;;;;;;;12.10;6.38;;;;;;;16.89;54.95;100739.81;128669;1092;22343;-77
2021/06/10 00:06:42;;;;;;;10.18;6.18;;;;;;;16.89;55.22;100738.00;128598;1092;22341;-77
2021/06/10 00:09:11;;;;;;;8.33;5.78;;;;;;;16.87;55.10;100737.36;128649;1092;22435;-77
2021/06/10 00:11:42;;;;;;;12.40;6.20;;;;;;;16.88;55.28;100746.19;128621;1092;22638;-77
2021/06/10 00:14:13;;;;;;;11.37;6.13;;;;;;;16.85;54.97;100738.58;128647;1092;22359;-78
2021/06/10 00:16:43;;;;;;;;;;;;;;;16.79;55.19;100734.84;128586;1092;22673;-78
2021/06/10 00:19:15;;;;;;;;;;;;;;;16.68;55.41;100735.40;128636;1092;23049;-78
2021/06/10 00:21:45;;;;;;;23.65;9.55;;;;;;;16.61;55.16;100730.03;128642;1092;21253;-78
2021/06/10 00:24:15;;;;;;;32.95;11.45;;;;;;;16.60;55.27;100735.58;128578;1092;24266;-78
2021/06/10 00:26:47;;;;;;;20.15;9.20;;;;;;;16.57;55.51;100734.12;128605;1092;22369;-78
2021/06/10 00:29:17;;;;;;;19.73;8.45;;;;;;;16.55;55.64;100730.00;128674;1092;22393;-78
2021/06/10 00:31:47;;;;;;;14.75;8.50;;;;;;;16.49;56.00;100734.27;128590;1092;22689;-77
2021/06/10 00:34:17;;;;;;;17.78;8.33;;;;;;;16.44;55.98;100732.20;128602;1095;22353;-77
2021/06/10 00:36:47;;;;;;;10.85;7.00;;;;;;;16.41;56.60;100743.26;128614;1092;24485;-77
2021/06/10 00:39:16;;;;;;;11.03;6.53;;;;;;;16.39;56.91;100728.47;128741;1092;22350;-78
2021/06/10 00:41:46;;;;;;;11.50;6.80;;;;;;;16.35;57.48;100732.55;128629;1095;24495;-77
2021/06/10 00:44:16;;;;;;;13.13;6.55;;;;;;;16.34;57.13;100718.41;128604;1095;24491;-76
2021/06/10 00:46:46;;;;;;;10.55;7.13;;;;;;;16.33;57.71;100730.09;128591;1092;22359;-77
2021/06/10 00:49:15;;;;;;;8.88;6.73;;;;;;;16.29;57.53;100728.82;128638;1095;22691;-76
2021/06/10 00:51:45;;;;;;;14.20;6.85;;;;;;;16.26;57.91;100729.24;128710;1092;23306;-77
2021/06/10 00:54:15;;;;;;;11.63;7.65;;;;;;;16.24;57.69;100728.59;128589;1095;22365;-76
2021/06/10 00:56:46;;;;;;;16.25;9.03;;;;;;;16.20;57.82;100732.69;128637;1092;22450;-77
2021/06/10 00:59:16;;;;;;;12.80;8.30;;;;;;;16.17;57.81;100733.07;128669;1095;22401;-77
2021/06/10 01:01:46;;;;;;;11.53;7.55;;;;;;;16.15;57.64;100735.09;128628;1095;24388;-77
2021/06/10 01:04:18;;;;;;;15.60;8.58;;;;;;;16.16;58.15;100732.25;128571;1095;22353;-78
2021/06/10 01:07:17;;;;;;;21.83;9.08;;;;;;;16.17;58.46;100735.73;128598;1093;22361;-77
2021/06/10 01:09:59;;;;;;;22.68;8.98;;;;;;;16.14;58.19;100731.61;128644;1095;22350;-77
2021/06/10 01:12:41;;;;;;;25.28;9.33;;;;;;;16.10;58.23;100738.36;128662;1092;22359;-76
2021/06/10 01:15:13;;;;;;;22.55;9.63;;;;;;;16.06;58.01;100734.44;128686;1092;24004;-77
2021/06/10 01:17:46;;;;;;;12.75;7.50;;;;;;;16.03;58.14;100737.48;128611;1092;22341;-77
2021/06/10 01:20:26;;;;;;;14.00;8.28;;;;;;;16.00;58.08;100729.88;128636;1092;25117;-77
2021/06/10 01:23:15;;;;;;;11.33;7.18;;;;;;;15.97;58.25;100732.93;128743;1092;22344;-75
2021/06/10 01:27:13;;;;;;;9.10;5.80;;;;;;;15.93;58.88;100729.83;128607;1092;22450;-77
2021/06/10 01:29:43;;;;;;;8.28;5.83;;;;;;;15.86;58.64;100736.10;127537;1101;22396;-78
2021/06/10 01:32:13;;;;;;;11.38;6.68;;;;;;;15.84;58.96;100730.98;127501;1101;22375;-77
2021/06/10 01:34:43;;;;;;;10.28;5.83;;;;;;;15.82;59.17;100737.52;127444;1101;22378;-77
2021/06/10 01:37:15;;;;;;;10.13;5.58;;;;;;;15.79;59.25;100741.38;127473;1101;24560;-78
2021/06/10 01:39:47;;;;;;;9.08;6.13;;;;;;;15.77;59.65;100740.77;127523;1101;22362;-77
2021/06/10 01:42:18;;;;;;;11.93;6.15;;;;;;;15.72;59.37;100727.19;127583;1101;22824;-77
2021/06/10 01:44:49;;;;;;;10.93;6.88;;;;;;;15.67;59.52;100740.27;127926;1101;22593;-79
2021/06/10 01:47:21;;;;;;;14.28;7.00;;;;;;;15.64;59.93;100737.95;127501;1101;22376;-77
2021/06/10 01:49:52;;;;;;;10.17;6.70;;;;;;;15.61;60.23;100733.02;127661;1101;22487;-77
2021/06/10 01:52:25;;;;;;;7.40;6.43;;;;;;;15.61;60.45;100738.34;127475;1101;22366;-77
2021/06/10 01:54:56;;;;;;;9.60;6.30;;;;;;;15.62;60.25;100737.31;127547;1105;22614;-77
2021/06/10 01:57:28;;;;;;;11.40;6.23;;;;;;;15.60;59.85;100734.85;127490;1105;22376;-77
2021/06/10 01:59:59;;;;;;;8.07;6.13;;;;;;;15.57;60.17;100721.10;127453;1101;22374;-79
2021/06/10 02:02:30;;;;;;;11.10;6.38;;;;;;;15.52;60.21;100724.31;127576;1101;24499;-77
2021/06/10 02:05:00;;;;;;;9.20;6.40;;;;;;;15.47;60.29;100732.89;127423;1101;22379;-79
2021/06/10 02:07:31;;;;;;;8.33;6.23;;;;;;;15.43;60.37;100725.48;128368;1095;22347;-77
2021/06/10 02:10:03;;;;;;;10.13;6.55;;;;;;;15.37;60.68;100728.91;128627;1095;23296;-77
2021/06/10 02:12:34;;;;;;;30.50;8.93;;;;;;;15.33;61.05;100722.28;128358;1092;24482;-77
2021/06/10 02:15:08;;;;;;;12.10;7.43;;;;;;;15.28;61.22;100721.02;128636;1092;22264;-77
2021/06/10 02:17:38;;;;;;;12.43;6.45;;;;;;;15.25;61.47;100720.58;128637;1092;22170;-76
2021/06/10 02:20:11;;;;;;;11.28;7.83;;;;;;;15.21;61.49;100712.16;128640;1092;22654;-76
2021/06/10 02:22:41;;;;;;;7.58;6.65;;;;;;;15.18;61.72;100709.86;128627;1092;22353;-77
2021/06/10 02:25:11;;;;;;;11.05;7.65;;;;;;;15.15;62.03;100709.42;128660;1092;23104;-78
2021/06/10 02:27:42;;;;;;;11.48;7.23;;;;;;;15.11;61.77;100716.96;128656;1092;22355;-77
2021/06/10 02:30:15;;;;;;;8.90;6.58;;;;;;;15.08;61.91;100713.85;128622;1092;24180;-77
2021/06/10 02:32:44;;;;;;;8.73;6.77;;;;;;;15.03;62.06;100715.25;128712;1092;22340;-77
2021/06/10 02:35:17;;;;;;;9.63;7.50;;;;;;;15.00;62.50;100715.63;128632;1092;23122;-77
2021/06/10 02:37:51;;;;;;;7.68;6.68;;;;;;;14.98;62.77;100711.49;128718;1092;23151;-77
2021/06/10 02:40:32;;;;;;;9.25;7.65;;;;;;;14.96;62.80;100717.02;128720;1092;22773;-76
2021/06/10 02:43:05;;;;;;;15.55;8.38;;;;;;;14.94;62.47;100708.39;128698;1092;22356;-77
2021/06/10 02:45:38;;;;;;;9.33;8.33;;;;;;;14.93;62.96;100720.05;128658;1092;22356;-77
2021/06/10 02:48:09;;;;;;;23.93;18.68;;;;;;;14.90;63.10;100723.08;128559;1092;22692;-77
2021/06/10 02:50:42;;;;;;;15.38;10.93;;;;;;;14.87;63.01;100723.45;128679;1092;22423;-78
2021/06/10 02:53:14;;;;;;;15.90;11.03;;;;;;;14.86;63.36;100720.96;128279;1095;22357;-77
2021/06/10 02:55:46;;;;;;;16.90;9.80;;;;;;;14.86;63.47;100726.28;128285;1095;22354;-77
2021/06/10 02:58:20;;;;;;;;;;;;;;;14.82;63.42;100725.83;128271;1095;22362;-78
2021/06/10 03:00:53;;;;;;;13.13;9.00;;;;;;;14.77;63.52;100726.40;128210;1095;23010;-77
2021/06/10 03:03:24;;;;;;;15.55;8.78;;;;;;;14.80;63.52;100735.84;128230;1095;22402;-78
2021/06/10 03:05:57;;;;;;;21.30;11.05;;;;;;;14.82;63.50;100728.49;128201;1095;22362;-77
2021/06/10 03:08:29;;;;;;;28.10;9.65;;;;;;;14.84;63.38;100734.46;128217;1095;22468;-78
2021/06/10 03:11:02;;;;;;;19.73;10.68;;;;;;;14.87;63.61;100734.09;128237;1095;24246;-77
2021/06/10 03:13:34;;;;;;;11.95;9.83;;;;;;;14.89;63.32;100737.37;128273;1095;22396;-77
2021/06/10 03:16:05;;;;;;;;;;;;;;;14.86;63.49;100736.92;128294;1095;24166;-78
2021/06/10 03:18:36;;;;;;;12.43;9.35;;;;;;;14.79;63.34;100739.50;128242;1095;21270;-78
2021/06/10 03:21:06;;;;;;;20.43;9.40;;;;;;;14.80;63.41;100739.33;128193;1095;22413;-77
2021/06/10 03:23:36;;;;;;;22.15;10.43;;;;;;;14.81;63.17;100746.28;128186;1095;24492;-77
2021/06/10 03:26:07;;;;;;;22.40;15.20;;;;;;;14.85;63.68;100753.90;128183;1095;22498;-78
2021/06/10 03:28:37;;;;;;;12.47;9.50;;;;;;;14.86;63.78;100745.75;128269;1092;24954;-77
2021/06/10 03:31:07;;;;;;;9.68;8.38;;;;;;;14.91;64.12;100747.84;128594;1092;25229;-77
2021/06/10 03:33:37;;;;;;;24.53;9.55;;;;;;;14.97;64.19;100745.26;128659;1091;22435;-77
2021/06/10 03:36:09;;;;;;;29.43;9.33;;;;;;;15.05;64.58;100745.13;128662;1092;22785;-78
2021/06/10 03:38:40;;;;;;;17.73;8.23;;;;;;;15.13;64.35;100744.22;128633;1092;22882;-78
2021/06/10 03:41:12;;;;;;;19.08;8.20;;;;;;;15.22;64.38;100747.56;128655;1092;22338;-78
2021/06/10 03:43:43;;;;;;;15.60;8.75;;;;;;;15.30;64.10;100750.13;128659;1092;24221;-77
2021/06/10 03:46:14;;;;;;;13.23;7.98;;;;;;;15.39;64.01;100758.80;128667;1092;22404;-76
2021/06/10 03:48:44;;;;;;;9.73;8.38;;;;;;;15.47;63.92;100751.52;128586;1092;24477;-78
2021/06/10 03:51:18;;;;;;;13.43;8.17;;;;;;;15.54;63.57;100755.07;128602;1092;22363;-78
2021/06/10 03:53:50;;;;;;;10.60;8.75;;;;;;;15.64;63.55;100753.94;128735;1092;22443;-77
2021/06/10 03:56:20;;;;;;;10.10;9.03;;;;;;;15.73;63.27;100755.48;128640;1092;22340;-78
2021/06/10 03:58:50;;;;;;;10.38;9.38;;;;;;;15.84;63.32;100751.48;128250;1093;22420;-78
2021/06/10 04:01:20;;;;;;;11.73;9.43;;;;;;;15.95;62.92;100745.61;128242;1095;22369;-78
2021/06/10 04:03:50;;;;;;;13.63;8.75;;;;;;;16.07;62.75;100746.73;128253;1097;25781;-78
2021/06/10 04:06:27;;;;;;;20.57;10.13;;;;;;;16.18;62.56;100748.86;127945;1098;24303;-78
2021/06/10 04:09:01;;;;;;;15.50;11.73;;;;;;;16.31;62.20;100749.97;127997;1098;22500;-79
2021/06/10 04:11:32;;;;;;;20.13;11.33;;;;;;;16.40;61.80;100752.29;128017;1098;22423;-77
2021/06/10 04:14:02;;;;;;;13.45;12.05;;;;;;;16.47;61.54;100742.48;127887;1098;22782;-78
2021/06/10 04:16:32;;;;;;;15.78;12.38;;;;;;;16.55;61.55;100738.81;127978;1098;22411;-77
2021/06/10 04:19:03;;;;;;;19.05;12.43;;;;;;;16.64;61.36;100742.16;127922;1098;22455;-77
2021/06/10 04:21:33;;;;;;;11.08;9.98;;;;;;;16.72;60.96;100739.30;128026;1095;22438;-78
2021/06/10 04:24:03;;;;;;;11.55;10.10;;;;;;;16.82;61.11;100747.80;128409;1092;22372;-78
2021/06/10 04:26:36;;;;;;;18.45;9.98;;;;;;;16.94;60.97;100748.06;128583;1092;22443;-78
2021/06/10 04:29:08;;;;;;;12.75;9.35;;;;;;;17.05;60.96;100746.66;128601;1092;22341;-79
2021/06/10 04:31:38;;;;;;;11.53;9.83;;;;;;;17.19;60.52;100745.66;128615;1092;23286;-78
2021/06/10 04:34:08;;;;;;;16.78;11.25;;;;;;;17.32;60.30;100745.69;128609;1092;22350;-78
2021/06/10 04:36:38;;;;;;;22.63;15.40;;;;;;;17.45;59.98;100742.22;128326;1092;22342;-77
2021/06/10 04:39:08;;;;;;;14.10;10.38;;;;;;;17.55;59.50;100747.17;128373;1092;24247;-78
2021/06/10 04:41:38;;;;;;;20.65;18.80;;;;;;;17.66;59.40;100743.91;128620;1092;23090;-79
2021/06/10 04:44:08;;;;;;;14.20;12.43;;;;;;;17.76;59.20;100744.36;128583;1092;24502;-77
2021/06/10 04:46:38;;;;;;;13.15;9.53;;;;;;;17.83;58.81;100731.81;128617;1092;24147;-77
2021/06/10 04:49:08;;;;;;;16.43;13.98;;;;;;;17.96;58.56;100735.48;128585;1092;23206;-77
2021/06/10 04:51:39;;;;;;;11.45;8.65;;;;;;;18.07;58.18;100735.70;128629;1092;23090;-78
2021/06/10 04:54:09;;;;;;;8.70;7.23;;;;;;;18.16;58.41;100735.46;128635;1092;22408;-78
2021/06/10 04:56:39;;;;;;;16.83;10.10;;;;;;;18.30;58.00;100742.45;128591;1092;25037;-78
2021/06/10 04:59:09;;;;;;;8.60;7.73;;;;;;;18.50;57.96;100734.38;128630;1092;22340;-77
2021/06/10 05:01:39;;;;;;;12.63;9.98;;;;;;;18.68;57.56;100736.36;128682;1092;22452;-77
2021/06/10 05:04:09;;;;;;;17.85;9.68;;;;;;;18.85;57.08;100728.70;128696;1095;22366;-77
2021/06/10 05:06:39;;;;;;;10.70;9.60;;;;;;;19.03;56.70;100729.66;128581;1092;22449;-77
2021/06/10 05:09:08;;;;;;;10.73;8.75;;;;;;;19.18;55.80;100737.39;128590;1092;22344;-76
2021/06/10 05:11:38;;;;;;;23.43;18.80;;;;;;;19.35;55.55;100739.56;128643;1092;24991;-77
2021/06/10 05:14:08;;;;;;;19.13;10.13;;;;;;;19.53;55.34;100739.66;128838;1092;22791;-77
2021/06/10 05:16:41;;;;;;;10.70;6.93;;;;;;;19.67;54.59;100733.18;128600;1092;22343;-77
2021/06/10 05:19:14;;;;;;;11.10;7.88;;;;;;;19.75;54.15;100735.57;128591;1095;22376;-79
2021/06/10 05:21:44;;;;;;;10.70;7.20;;;;;;;19.84;53.75;100735.31;128615;1093;22350;-77
2021/06/10 05:24:15;;;;;;;11.98;6.60;;;;;;;19.94;53.23;100732.95;128652;1092;23382;-79
2021/06/10 05:26:45;;;;;;;10.60;7.20;;;;;;;20.11;53.01;100730.53;128677;1093;24238;-78
2021/06/10 05:29:15;;;;;;;13.65;7.53;;;;;;;20.30;52.73;100734.06;128601;1092;22347;-78
2021/06/10 05:31:45;;;;;;;13.38;8.63;;;;;;;20.52;52.56;100729.90;128586;1095;24965;-79
2021/06/10 05:34:15;;;;;;;22.43;15.15;;;;;;;20.79;51.88;100735.80;128650;1092;24211;-78
2021/06/10 05:36:45;;;;;;;14.05;8.65;;;;;;;21.03;51.28;100731.34;128652;1092;22358;-78
2021/06/10 05:39:14;;;;;;;13.03;8.90;;;;;;;21.26;50.99;100724.39;128626;1092;24517;-78
2021/06/10 05:41:44;;;;;;;14.30;7.80;;;;;;;21.52;49.92;100729.41;128636;1092;22333;-79
2021/06/10 05:44:14;;;;;;;16.95;8.45;;;;;;;21.80;49.60;100733.32;128698;1092;22321;-78
2021/06/10 05:46:44;;;;;;;7.35;6.65;;;;;;;22.11;48.77;100725.95;128652;1092;23293;-77
2021/06/10 05:49:17;;;;;;;11.15;6.48;;;;;;;22.35;47.91;100726.77;128645;1092;22360;-78
2021/06/10 05:51:48;;;;;;;11.53;6.65;;;;;;;22.56;47.85;100736.94;128685;1092;22349;-79
2021/06/10 05:54:18;;;;;;;11.53;7.23;;;;;;;22.90;47.82;100727.10;128629;1092;22346;-80
2021/06/10 05:56:50;;;;;;;9.08;6.45;;;;;;;23.31;47.16;100727.88;128641;1092;22626;-78
2021/06/10 05:59:20;;;;;;;14.03;7.20;;;;;;;23.76;46.53;100732.44;128658;1092;22782;-78
2021/06/10 06:01:49;;;;;;;10.60;7.40;;;;;;;24.29;45.56;100732.91;128614;1092;22338;-79
2021/06/10 06:04:19;;;;;;;15.68;8.53;;;;;;;24.69;44.41;100729.94;128689;1090;22360;-78
2021/06/10 06:06:49;;;;;;;11.43;6.85;;;;;;;25.09;43.49;100728.75;128595;1092;22707;-80
2021/06/10 06:09:19;;;;;;;16.75;7.30;;;;;;;25.61;42.46;100727.38;128687;1092;23115;-78
2021/06/10 06:11:52;;;;;;;10.23;6.30;;;;;;;25.89;41.39;100726.24;128668;1092;22358;-79
2021/06/10 06:14:27;;;;;;;11.13;6.25;;;;;;;26.09;40.61;100734.52;128684;1092;23298;-79
2021/06/10 06:16:57;;;;;;;10.50;6.30;;;;;;;26.49;40.39;100735.81;128683;1092;22331;-79
2021/06/10 06:19:27;;;;;;;15.70;7.18;;;;;;;26.93;39.56;100730.83;128749;1092;22352;-78
2021/06/10 06:21:57;;;;;;;20.03;7.00;;;;;;;27.33;38.41;100742.06;128662;1092;24482;-78
2021/06/10 06:24:28;;;;;;;11.33;6.00;;;;;;;27.76;37.24;100753.44;128700;1092;22337;-79
2021/06/10 06:26:59;;;;;;;14.90;5.28;;;;;;;28.12;36.86;100767.81;128697;1092;24461;-80
2021/06/10 06:29:28;;;;;;;;;;;;;;;28.14;35.27;100769.17;128925;1092;22234;-79
2021/06/10 06:31:58;;;;;;;4.68;2.95;;;;;;;27.81;35.93;100781.43;128646;1092;22975;-79
2021/06/10 06:34:28;;;;;;;6.70;4.40;;;;;;;27.43;35.98;100794.42;128730;1092;22437;-79
2021/06/10 06:36:58;;;;;;;12.13;4.03;;;;;;;27.05;36.59;100787.52;128679;1092;22356;-79
2021/06/10 06:39:27;;;;;;;8.25;3.45;;;;;;;26.66;37.58;100796.06;128695;1092;22322;-79
2021/06/10 06:41:58;;;;;;;10.78;4.28;;;;;;;26.47;38.15;100787.56;128652;1092;22337;-79
2021/06/10 06:44:27;;;;;;;9.28;4.53;;;;;;;26.32;38.26;100792.03;128618;1092;22339;-79
2021/06/10 06:46:57;;;;;;;10.05;5.38;;;;;;;26.14;38.45;100788.69;128669;1092;22356;-78
2021/06/10 06:49:27;;;;;;;11.83;5.33;;;;;;;25.94;38.82;100797.48;128712;1092;22366;-79
2021/06/10 06:51:56;;;;;;;8.10;3.90;;;;;;;25.75;38.90;100805.13;128703;1092;24508;-78
2021/06/10 06:54:26;;;;;;;6.73;4.00;;;;;;;25.70;39.19;100810.52;128642;1092;22334;-79
2021/06/10 06:56:56;;;;;;;6.90;5.05;;;;;;;25.66;39.45;100819.38;128676;1092;22364;-79
2021/06/10 06:59:25;;;;;;;8.25;5.88;;;;;;;25.61;39.70;100809.34;128643;1092;22396;-77
2021/06/10 07:01:55;;;;;;;6.98;5.80;;;;;;;25.47;40.80;100810.84;128281;1095;22358;-79
2021/06/10 07:04:25;;;;;;;7.85;5.38;;;;;;;25.18;40.95;100819.18;128282;1094;22362;-80
2021/06/10 07:06:55;;;;;;;7.68;5.25;;;;;;;24.84;41.57;100835.51;128304;1095;22506;-78
2021/06/10 07:09:24;;;;;;;194.90;28.93;;;;;;;24.45;41.87;100841.98;128271;1095;22357;-81
2021/06/10 07:11:54;;;;;;;17.03;6.48;;;;;;;24.06;43.04;100844.59;128330;1094;24516;-79
2021/06/10 07:14:23;;;;;;;11.58;5.85;;;;;;;23.66;44.50;100856.31;128295;1095;22350;-79
2021/06/10 07:16:53;;;;;;;7.63;6.13;;;;;;;23.23;45.46;100850.38;128287;1095;22350;-78
2021/06/10 07:19:23;;;;;;;9.70;7.20;;;;;;;22.84;46.38;100851.96;128233;1092;25114;-78
2021/06/10 07:21:53;;;;;;;6.53;5.80;;;;;;;22.44;47.78;100851.88;128644;1092;22356;-78
2021/06/10 07:24:46;;;;;;;7.08;6.38;;;;;;;22.05;48.46;100859.52;128632;1092;22328;-78
2021/06/10 07:27:17;;;;;;;7.77;6.87;;;;;;;21.71;49.45;100866.45;128678;1092;22626;-79
2021/06/10 07:29:47;;;;;;;10.65;7.68;;;;;;;21.41;50.15;100853.84;128689;1092;24573;-79
2021/06/10 07:32:17;;;;;;;12.95;7.28;;;;;;;21.21;50.92;100859.43;128655;1092;24560;-79
2021/06/10 07:34:47;;;;;;;8.93;6.98;;;;;;;21.05;51.09;100847.42;128629;1092;22442;-78
2021/06/10 07:37:16;;;;;;;10.75;8.33;;;;;;;20.90;51.62;100853.19;128715;1092;22353;-78
2021/06/10 07:39:46;;;;;;;12.53;7.98;;;;;;;20.77;52.29;100852.51;128659;1092;22344;-78
2021/06/10 07:42:18;;;;;;;8.93;7.93;;;;;;;20.66;52.22;100846.02;128661;1092;22337;-79
2021/06/10 07:44:47;;;;;;;11.88;8.50;;;;;;;20.56;52.43;100854.58;128700;1092;22337;-78
2021/06/10 07:47:17;;;;;;;188.80;35.78;;;;;;;20.44;52.85;100856.30;128794;1092;22356;-80
2021/06/10 07:49:50;;;;;;;121.75;24.20;;;;;;;20.37;53.34;100858.23;128616;1092;22350;-79
2021/06/10 07:52:20;;;;;;;13.33;6.60;;;;;;;20.29;53.05;100851.26;128639;1092;22637;-82
2021/06/10 07:54:50;;;;;;;11.30;5.83;;;;;;;20.26;52.98;100849.05;128690;1092;22325;-79
2021/06/10 07:57:20;;;;;;;13.53;5.60;;;;;;;20.23;53.14;100852.16;128621;1092;23077;-80
2021/06/10 07:59:49;;;;;;;9.35;4.58;;;;;;;20.17;52.70;100843.12;128637;1092;22337;-82
2021/06/10 08:02:44;;;;;;;8.28;4.85;;;;;;;20.07;52.82;100858.88;128651;1092;22337;-77
2021/06/10 08:05:15;;;;;;;5.15;4.00;;;;;;;20.05;52.55;100855.59;128643;1092;22366;-80
2021/06/10 08:07:45;;;;;;;5.48;4.53;;;;;;;19.96;52.31;100854.23;128649;1092;22344;-80
2021/06/10 08:10:14;;;;;;;5.85;3.95;;;;;;;19.84;52.90;100858.64;128617;1092;24214;-80
2021/06/10 08:12:48;;;;;;;5.40;3.85;;;;;;;19.80;53.07;100860.11;128632;1092;22334;-80
2021/06/10 08:15:18;;;;;;;10.35;5.03;;;;;;;19.70;53.79;100852.55;128629;1092;23107;-80
2021/06/10 08:17:49;;;;;;;9.40;4.30;;;;;;;19.60;54.01;100850.30;128628;1092;24174;-80
2021/06/10 08:20:25;;;;;;;9.45;5.20;;;;;;;19.49;55.21;100840.24;128600;1092;22341;-79
2021/06/10 08:22:58;;;;;;;11.40;4.98;;;;;;;19.36;55.79;100827.77;128593;1092;22359;-80
2021/06/10 08:25:30;;;;;;;9.45;4.45;;;;;;;19.25;56.84;100829.23;128624;1092;23208;-76
2021/06/10 08:28:04;;;;;;;6.33;3.48;;;;;;;19.17;57.68;100821.45;128703;1092;22396;-79
2021/06/10 08:30:34;;;;;;;3.98;3.10;;;;;;;19.13;58.45;100828.28;128684;1092;22339;-78
2021/06/10 08:33:05;;;;;;;6.65;3.40;;;;;;;19.16;59.10;100827.00;128690;1092;22355;-77
2021/06/10 08:35:39;;;;;;;6.35;4.88;;;;;;;19.21;59.58;100836.05;128675;1092;22793;-77
2021/06/10 08:38:09;;;;;;;8.25;4.03;;;;;;;19.32;60.02;100834.56;128573;1092;22454;-78
2021/06/10 08:40:39;;;;;;;5.33;3.85;;;;;;;19.40;60.18;100837.01;128589;1092;23146;-78
2021/06/10 08:43:10;;;;;;;7.48;3.85;;;;;;;19.47;60.33;100845.02;128672;1092;22344;-78
2021/06/10 08:45:45;;;;;;;5.50;3.80;;;;;;;19.45;59.84;100849.75;128613;1092;22333;-79
2021/06/10 08:48:14;;;;;;;3.53;2.73;;;;;;;19.36;59.60;100842.98;128672;1092;23213;-77
2021/06/10 08:50:44;;;;;;;4.28;2.80;;;;;;;19.28;59.35;100844.88;128652;1092;22944;-77
2021/06/10 08:53:16;;;;;;;4.95;3.03;;;;;;;19.27;60.11;100840.56;128670;1092;22377;-77
2021/06/10 08:55:48;;;;;;;7.20;3.38;;;;;;;19.24;59.96;100846.34;128655;1092;22377;-78
2021/06/10 08:58:18;;;;;;;6.68;3.25;;;;;;;19.17;59.97;100837.52;128590;1092;24332;-77
2021/06/10 09:00:56;;;;;;;4.20;2.98;;;;;;;19.14;60.67;100850.52;128346;1092;22826;-77
2021/06/10 09:03:32;;;;;;;4.75;3.18;;;;;;;19.15;60.91;100847.61;128644;1092;22356;-77
2021/06/10 09:06:11;;;;;;;4.63;3.35;;;;;;;19.20;61.42;100836.28;128669;1092;24509;-77
2021/06/10 09:08:42;;;;;;;4.25;3.15;;;;;;;19.30;61.54;100839.33;128805;1090;22361;-76
2021/06/10 09:11:22;;;;;;;4.85;3.23;;;;;;;19.40;61.92;100839.69;128652;1092;22763;-78
2021/06/10 09:13:58;;;;;;;3.23;2.93;;;;;;;19.56;61.96;100842.88;128690;1092;22342;-78
2021/06/10 09:16:37;;;;;;;4.53;3.35;;;;;;;19.70;61.15;100845.31;128658;1092;24275;-78
2021/06/10 09:19:17;;;;;;;5.08;3.38;;;;;;;19.87;61.00;100839.44;128683;1092;24554;-78
2021/06/10 09:22:00;;;;;;;4.63;3.55;;;;;;;20.03;61.20;100838.91;128617;1092;22360;-77
2021/06/10 09:24:35;;;;;;;5.53;3.05;;;;;;;20.27;60.94;100841.81;128642;1092;22337;-78
2021/06/10 09:27:14;;;;;;;2.95;2.65;;;;;;;20.45;59.84;100847.20;128656;1092;22340;-78
2021/06/10 09:29:52;;;;;;;3.40;3.10;;;;;;;20.62;59.30;100836.75;128689;1092;22333;-78
2021/06/10 09:32:32;;;;;;;4.85;2.58;;;;;;;20.70;58.76;100841.84;128652;1092;22325;-77
2021/06/10 09:35:06;;;;;;;5.38;3.78;;;;;;;20.77;58.23;100842.59;128241;1094;22381;-78
2021/06/10 09:37:42;;;;;;;6.38;3.70;;;;;;;20.85;57.79;100842.28;128357;1095;22410;-78
2021/06/10 09:40:18;;;;;;;4.93;3.83;;;;;;;20.89;57.46;100842.65;128246;1095;22376;-78
2021/06/10 09:42:50;;;;;;;4.95;4.40;;;;;;;20.95;57.20;100847.13;128478;1095;22360;-78
2021/06/10 09:45:24;;;;;;;5.38;4.80;;;;;;;21.05;57.26;100852.80;128796;1095;22375;-79
2021/06/10 09:47:59;;;;;;;4.90;4.43;;;;;;;21.38;57.96;100859.66;128376;1095;22363;-78
2021/06/10 09:50:35;;;;;;;5.88;5.33;;;;;;;21.96;58.02;100855.52;128255;1098;22381;-77
2021/06/10 09:53:17;;;;;;;5.50;4.95;;;;;;;22.53;56.46;100853.98;128141;1098;22372;-77
2021/06/10 09:55:52;;;;;;;5.53;5.03;;;;;;;22.95;55.10;100850.33;128199;1097;22334;-78
2021/06/10 09:58:40;;;;;;;4.45;4.05;;;;;;;23.39;53.77;100859.59;128040;1098;22389;-76
2021/06/10 10:01:13;;;;;;;6.00;4.03;;;;;;;23.71;52.72;100848.33;128430;1098;23142;-78
2021/06/10 10:03:50;;;;;;;5.20;4.70;;;;;;;24.11;51.90;100845.49;128339;1098;22357;-78
2021/06/10 10:06:26;;;;;;;4.63;3.93;;;;;;;24.31;50.75;100844.19;128001;1098;22812;-77
2021/06/10 10:09:05;;;;;;;5.98;3.28;;;;;;;24.37;49.08;100837.80;128090;1095;22375;-77
2021/06/10 10:11:35;;;;;;;5.40;2.93;;;;;;;24.32;48.33;100835.82;128527;1092;22347;-77
2021/06/10 10:14:06;;;;;;;4.17;2.90;;;;;;;24.35;48.35;100835.33;128591;1092;22369;-77
2021/06/10 10:16:37;;;;;;;7.33;3.50;;;;;;;24.53;48.14;100836.17;128243;1095;22438;-77
2021/06/10 10:19:08;;;;;;;3.40;2.90;;;;;;;24.61;47.67;100830.34;128629;1095;22350;-77
2021/06/10 10:21:37;;;;;;;3.80;2.70;;;;;;;24.68;46.87;100830.16;128324;1095;22370;-77
2021/06/10 10:24:11;;;;;;;4.48;2.70;;;;;;;24.68;45.95;100816.65;128322;1095;22344;-77
2021/06/10 10:26:41;;;;;;;3.05;2.15;;;;;;;24.62;44.80;100821.16;128308;1094;22364;-78
2021/06/10 10:29:12;;;;;;;6.38;2.50;;;;;;;24.44;44.47;100824.16;128363;1095;22336;-77
2021/06/10 10:31:44;;;;;;;6.33;3.63;;;;;;;24.49;45.04;100819.66;128374;1095;24486;-77
2021/06/10 10:34:34;;;;;;;8.85;4.10;;;;;;;24.57;45.00;100818.41;128372;1092;23202;-77
2021/06/10 10:37:26;;;;;;;4.03;3.43;;;;;;;24.50;45.23;100817.77;128637;1092;22354;-78
2021/06/10 10:39:56;;;;;;;3.83;3.43;;;;;;;24.40;45.05;100813.00;128654;1092;22350;-78
2021/06/10 10:42:35;;;;;;;6.27;4.07;;;;;;;24.21;44.83;100812.45;128804;1092;22320;-78
2021/06/10 10:45:26;;;;;;;5.18;4.58;;;;;;;24.00;44.82;100813.21;128741;1092;24171;-77
2021/06/10 10:48:01;;;;;;;4.87;4.37;;;;;;;23.93;45.67;100802.58;128691;1092;24479;-78
2021/06/10 10:50:38;;;;;;;6.73;4.80;;;;;;;23.94;45.39;100805.02;128665;1092;25002;-77
2021/06/10 10:53:25;;;;;;;4.43;4.03;;;;;;;23.96;45.48;100802.09;128692;1092;22353;-78
2021/06/10 10:56:08;;;;;;;8.10;4.73;;;;;;;23.94;45.57;100798.81;128694;1092;23290;-78
2021/06/10 10:58:38;;;;;;;8.53;5.73;;;;;;;23.91;46.19;100789.31;128346;1095;22369;-77
2021/06/10 11:01:10;;;;;;;4.70;3.78;;;;;;;23.89;45.54;100788.77;128614;1095;22341;-77
2021/06/10 11:03:44;;;;;;;5.73;3.20;;;;;;;23.85;45.33;100790.29;128409;1095;22366;-77
2021/06/10 11:06:26;;;;;;;6.08;3.08;;;;;;;23.78;44.71;100794.22;128747;1095;22374;-78
2021/06/10 11:09:12;;;;;;;2.90;2.50;;;;;;;23.72;44.50;100790.61;128590;1095;25111;-77
2021/06/10 11:12:10;;;;;;;3.53;2.23;;;;;;;23.71;44.67;100783.59;128330;1095;24553;-77
2021/06/10 11:14:52;;;;;;;2.93;2.55;;;;;;;23.68;44.38;100776.80;128468;1095;22368;-78
2021/06/10 11:17:29;;;;;;;3.20;2.28;;;;;;;23.65;44.54;100779.95;128677;1092;22330;-77
2021/06/10 11:20:13;;;;;;;2.80;1.63;;;;;;;23.59;43.75;100775.56;128632;1092;22624;-77
2021/06/10 11:22:43;;;;;;;3.88;2.20;;;;;;;23.61;44.19;100770.72;128666;1092;22335;-77
2021/06/10 11:25:44;;;;;;;6.30;2.55;;;;;;;23.66;44.05;100761.91;128630;1092;22644;-78
2021/06/10 11:28:29;;;;;;;3.53;2.57;;;;;;;23.58;44.34;100760.42;128632;1091;22330;-77
2021/06/10 11:31:20;;;;;;;4.80;4.13;;;;;;;23.56;44.38;100767.95;128268;1095;22378;-77
2021/06/10 11:33:51;;;;;;;3.33;2.70;;;;;;;23.58;44.25;100759.60;128339;1095;22695;-77
2021/06/10 11:36:22;;;;;;;3.88;2.83;;;;;;;23.59;44.55;100745.05;128421;1095;22442;-76
2021/06/10 11:38:52;;;;;;;4.80;2.60;;;;;;;23.59;44.64;100745.05;128252;1095;23083;-79
2021/06/10 11:41:25;;;;;;;4.08;3.20;;;;;;;23.61;44.90;100745.63;128317;1095;22415;-76